Time;durP1;ratioP1;P1;durP2;ratioP2;P2;SDS_P1;SDS_P2;PMS_P1;PMS_P2;Temp;Humidity;BMP_temperature;BMP_pressure;BME280_temperature;BME280_humidity;BME280_pressure;Samples;Min_cycle;Max_cycle;Signal;HPM_P1;HPM_P2
2022/12/10 00:01:36;;;;;;;77.43;34.97;;;;;;;-4.59;100.00;100881.16;5094263;28;20020;-83
2022/12/10 00:04:02;;;;;;;72.10;32.78;;;;;;;-4.56;100.00;100887.03;5094577;28;20131;-89
2022/12/10 00:06:32;;;;;;;74.18;33.60;;;;;;;-5.11;100.00;100793.84;5094081;28;20073;-85
2022/12/10 00:09:04;;;;;;;79.28;35.55;;;;;;;-5.34;100.00;100757.75;5093942;28;20081;-88
2022/12/10 00:11:30;;;;;;;75.07;33.47;;;;;;;-5.27;100.00;100754.41;5093542;28;20028;-82
2022/12/10 00:13:57;;;;;;;76.47;35.08;;;;;;;-4.85;100.00;100811.47;5094008;28;20066;-85
2022/12/10 00:16:24;;;;;;;76.90;35.03;;;;;;;-4.40;100.00;100867.72;5093941;28;20032;-88
2022/12/10 00:18:50;;;;;;;79.05;36.05;;;;;;;-4.16;100.00;100881.94;5093668;28;20023;-83
2022/12/10 00:21:19;;;;;;;80.47;35.03;;;;;;;-4.08;100.00;100896.22;5094092;28;20103;-90
2022/12/10 00:23:45;;;;;;;70.85;32.47;;;;;;;-4.00;100.00;100897.91;5093806;28;20040;-86
2022/12/10 00:26:23;;;;;;;77.57;34.33;;;;;;;-4.04;100.00;100887.78;5093815;28;20024;-80
2022/12/10 00:28:49;;;;;;;72.90;34.67;;;;;;;-3.91;100.00;100900.41;5093992;28;20088;-82
2022/12/10 00:31:19;;;;;;;66.18;30.67;;;;;;;-3.89;100.00;100898.69;5088777;28;20139;-82
2022/12/10 00:33:46;;;;;;;77.47;34.15;;;;;;;-4.07;100.00;100865.13;5073336;28;20112;-81
2022/12/10 00:36:22;;;;;;;79.43;34.70;;;;;;;-3.93;100.00;100884.41;5073433;28;20139;-86
2022/12/10 00:38:49;;;;;;;77.55;34.42;;;;;;;-3.85;100.00;100901.19;5072105;28;20508;-85
2022/12/10 00:41:15;;;;;;;85.00;35.55;;;;;;;-3.83;100.00;100903.75;5073223;28;20383;-89
2022/12/10 00:43:41;;;;;;;72.32;33.35;;;;;;;-3.82;100.00;100900.38;5073297;28;20055;-84
2022/12/10 00:46:07;;;;;;;81.38;36.38;;;;;;;-4.04;100.00;100860.03;5072890;28;20032;-81
2022/12/10 00:48:32;;;;;;;79.05;34.90;;;;;;;-3.84;100.00;100891.94;5077935;28;20075;-91
2022/12/10 00:51:02;;;;;;;67.85;32.17;;;;;;;-3.82;100.00;100897.84;5073642;28;20070;-91
2022/12/10 00:53:30;;;;;;;75.85;34.30;;;;;;;-3.80;100.00;100888.59;5073813;28;20048;-91
2022/12/10 00:55:56;;;;;;;75.25;35.95;;;;;;;-4.06;100.00;100856.69;5073768;28;20032;-90
2022/12/10 00:58:22;;;;;;;67.95;31.80;;;;;;;-3.92;100.00;100878.53;5073559;28;20055;-90
2022/12/10 01:01:07;;;;;;;72.47;33.40;;;;;;;-4.06;100.00;100853.34;5072960;28;20104;-88
2022/12/10 01:03:33;;;;;;;71.95;34.67;;;;;;;-4.96;100.00;100725.84;5072720;28;20040;-90
2022/12/10 01:06:17;;;;;;;73.32;34.85;;;;;;;-4.49;100.00;100810.59;5073652;28;20135;-90
2022/12/10 01:08:43;;;;;;;74.20;35.60;;;;;;;-4.52;100.00;100815.66;5073271;28;20028;-85
2022/12/10 01:11:19;;;;;;;72.22;32.83;;;;;;;-5.03;100.00;100749.34;5072963;28;20039;-90
2022/12/10 01:13:47;;;;;;;74.13;34.17;;;;;;;-4.44;100.00;100849.22;5073054;28;20024;-90
2022/12/10 01:16:25;;;;;;;69.28;31.80;;;;;;;-4.38;100.00;100874.41;5072628;28;20104;-90
2022/12/10 01:18:54;;;;;;;75.00;31.98;;;;;;;-4.29;100.00;100890.38;5072742;28;20213;-91
2022/12/10 01:21:20;;;;;;;73.15;31.65;;;;;;;-4.35;100.00;100891.22;5072980;28;20025;-90
2022/12/10 01:23:48;;;;;;;83.10;35.70;;;;;;;-4.53;100.00;100856.78;5074456;28;20361;-91
2022/12/10 01:26:20;;;;;;;82.55;35.20;;;;;;;-4.24;100.00;100897.06;5076987;28;20465;-91
2022/12/10 01:28:46;;;;;;;73.35;34.05;;;;;;;-4.48;100.00;100850.06;5076986;28;20036;-90
2022/12/10 01:31:14;;;;;;;87.13;38.00;;;;;;;-4.82;100.00;100791.28;5082782;28;20052;-87
2022/12/10 01:33:40;;;;;;;83.07;36.35;;;;;;;-4.14;100.00;100890.34;5097318;28;20028;-85
2022/12/10 01:36:20;;;;;;;78.97;33.85;;;;;;;-4.09;100.00;100886.97;5097097;28;20051;-86
2022/12/10 01:38:46;;;;;;;87.20;37.60;;;;;;;-4.59;100.00;100810.59;5096978;28;20093;-85
2022/12/10 01:41:17;;;;;;;99.85;37.75;;;;;;;-3.99;100.00;100887.78;5096780;28;20032;-81
2022/12/10 01:44:26;;;;;;;94.88;38.90;;;;;;;-3.94;100.00;100891.13;5096910;28;20028;-88
2022/12/10 01:46:54;;;;;;;88.20;36.97;;;;;;;-3.91;100.00;100886.09;5077833;28;20079;-84
2022/12/10 01:49:35;;;;;;;93.10;38.45;;;;;;;-3.94;100.00;100872.63;5096588;28;20032;-90
2022/12/10 01:52:01;;;;;;;88.70;40.25;;;;;;;-4.58;100.00;100754.34;5096623;28;20102;-88
2022/12/10 01:54:39;;;;;;;96.63;40.97;;;;;;;-4.23;100.00;100808.00;5096819;28;20483;-89
2022/12/10 01:57:27;;;;;;;86.68;37.40;;;;;;;-3.58;100.00;100895.22;5096198;28;20020;-82
2022/12/10 02:00:07;;;;;;;89.22;39.85;;;;;;;-3.56;100.00;100893.53;5096631;28;20372;-92
2022/12/10 02:03:02;;;;;;;98.20;40.00;;;;;;;-3.51;100.00;100898.56;5078859;28;20495;-90
2022/12/10 02:05:35;;;;;;;86.55;40.13;;;;;;;-3.42;100.00;100906.09;5094270;28;20058;-84
2022/12/10 02:08:08;;;;;;;91.78;42.20;;;;;;;-3.36;100.00;100900.16;5096340;28;20074;-87
2022/12/10 02:10:54;;;;;;;95.20;41.42;;;;;;;-3.46;100.00;100879.19;5096206;28;20410;-82
2022/12/10 02:13:43;;;;;;;88.85;37.42;;;;;;;-3.23;100.00;100909.38;5096363;28;20016;-89
2022/12/10 02:16:19;;;;;;;90.50;39.08;;;;;;;-3.46;100.00;100864.03;5096108;28;20070;-90
2022/12/10 02:18:57;;;;;;;97.28;39.05;;;;;;;-3.16;100.00;100900.91;5078412;28;20372;-89
2022/12/10 02:21:30;;;;;;;86.50;36.45;;;;;;;-3.15;100.00;100899.22;5096507;28;20023;-91
2022/12/10 02:24:00;;;;;;;88.13;40.38;;;;;;;-3.16;100.00;100903.44;5096070;28;20024;-90
2022/12/10 02:26:31;;;;;;;87.25;37.50;;;;;;;-3.16;100.00;100900.91;5095984;28;20057;-88
2022/12/10 02:29:14;;;;;;;87.45;38.17;;;;;;;-3.19;100.00;100901.78;5095789;28;20062;-89
2022/12/10 02:31:56;;;;;;;84.72;37.35;;;;;;;-3.53;100.00;100859.88;5095878;28;20050;-79
2022/12/10 02:34:24;;;;;;;84.10;38.30;;;;;;;-3.44;100.00;100877.50;5095290;28;20034;-91
2022/12/10 02:36:53;;;;;;;88.68;39.88;;;;;;;-3.48;100.00;100871.63;5095168;28;20016;-81
2022/12/10 02:39:27;;;;;;;86.95;39.72;;;;;;;-3.27;100.00;100905.19;5095412;28;20472;-82
2022/12/10 02:41:54;;;;;;;73.45;34.65;;;;;;;-3.28;100.00;100906.03;5095544;28;20059;-91
2022/12/10 02:44:23;;;;;;;78.43;35.05;;;;;;;-3.39;100.00;100893.47;5095617;28;20039;-89
2022/12/10 02:46:55;;;;;;;84.10;35.70;;;;;;;-3.56;100.00;100870.81;5095508;28;20103;-81
2022/12/10 02:49:21;;;;;;;84.80;34.53;;;;;;;-3.72;100.00;100853.25;5095588;28;20467;-90
2022/12/10 02:51:49;;;;;;;79.85;34.95;;;;;;;-3.42;100.00;100915.38;5095460;28;20028;-88
2022/12/10 02:54:33;;;;;;;78.25;32.45;;;;;;;-3.41;100.00;100912.84;5095424;28;20089;-81
2022/12/10 02:57:03;;;;;;;80.72;34.20;;;;;;;-3.39;100.00;100913.66;5095585;28;20020;-91
2022/12/10 02:59:47;;;;;;;89.30;33.88;;;;;;;-3.38;100.00;100917.84;5095432;28;20490;-86
2022/12/10 03:02:53;;;;;;;99.10;35.22;;;;;;;-3.39;100.00;100906.09;5077095;28;20035;-90
2022/12/10 03:05:46;;;;;;;83.10;35.85;;;;;;;-3.41;100.00;100917.03;5012988;28;20060;-88
2022/12/10 03:08:30;;;;;;;89.28;35.13;;;;;;;-3.85;100.00;100843.16;5013199;28;20040;-83
2022/12/10 03:11:04;;;;;;;104.63;39.33;;;;;;;-3.36;100.00;100912.78;5012964;28;20474;-81
2022/12/10 03:13:37;;;;;;;90.55;37.40;;;;;;;-3.32;100.00;100917.84;5013110;28;20033;-86
2022/12/10 03:16:04;;;;;;;94.90;37.15;;;;;;;-3.52;100.00;100875.00;5013037;28;20065;-90
2022/12/10 03:18:33;;;;;;;93.45;39.10;;;;;;;-3.30;100.00;100911.09;5012723;28;20367;-87
2022/12/10 03:21:03;;;;;;;94.97;36.25;;;;;;;-3.28;100.00;100909.38;5012700;28;20030;-90
2022/12/10 03:23:30;;;;;;;98.00;37.28;;;;;;;-3.43;100.00;100884.25;5012831;28;20433;-88
2022/12/10 03:25:55;;;;;;;98.78;39.80;;;;;;;-3.32;100.00;100896.81;5013865;28;20040;-91
2022/12/10 03:28:23;;;;;;;101.60;39.90;;;;;;;-3.65;100.00;100837.22;5012673;28;20042;-90
2022/12/10 03:30:50;;;;;;;94.55;37.42;;;;;;;-3.48;100.00;100869.09;5012750;28;20050;-82
2022/12/10 03:33:16;;;;;;;101.13;39.30;;;;;;;-3.42;100.00;100873.28;5013292;28;20022;-91
2022/12/10 03:35:43;;;;;;;96.22;37.08;;;;;;;-3.16;100.00;100903.44;5012514;28;20109;-89
2022/12/10 03:38:09;;;;;;;91.95;36.25;;;;;;;-3.13;100.00;100907.66;5012430;28;20032;-89
2022/12/10 03:40:35;;;;;;;97.13;38.28;;;;;;;-3.27;100.00;100878.25;5022261;28;20386;-90
2022/12/10 03:43:00;;;;;;;99.28;38.30;;;;;;;-3.13;100.00;100902.59;5094521;28;20032;-91
2022/12/10 03:45:26;;;;;;;109.00;38.05;;;;;;;-3.38;100.00;100861.47;5094441;28;20532;-90
2022/12/10 03:47:51;;;;;;;95.18;37.20;;;;;;;-3.14;100.00;100893.34;5094145;28;20097;-90
2022/12/10 03:50:17;;;;;;;104.50;37.25;;;;;;;-3.13;100.00;100902.59;5094560;28;20422;-90
2022/12/10 03:52:48;;;;;;;110.68;39.75;;;;;;;-3.14;100.00;100890.81;5094365;28;20103;-90
2022/12/10 03:55:13;;;;;;;101.05;38.10;;;;;;;-3.02;100.00;100926.09;5094368;28;20492;-90
2022/12/10 03:57:39;;;;;;;108.53;40.28;;;;;;;-3.32;100.00;100869.88;5076176;28;20103;-88
2022/12/10 04:00:06;;;;;;;105.18;37.67;;;;;;;-3.07;100.00;100917.69;5094101;28;20089;-90
2022/12/10 04:02:32;;;;;;;113.15;40.67;;;;;;;-2.98;100.00;100920.19;5094046;28;20153;-87
2022/12/10 04:05:00;;;;;;;109.00;39.88;;;;;;;-3.21;100.00;100878.22;5093958;28;20103;-91
2022/12/10 04:07:29;;;;;;;104.45;39.40;;;;;;;-2.96;100.00;100926.03;5075990;28;20174;-89
2022/12/10 04:09:54;;;;;;;109.63;40.67;;;;;;;-2.96;100.00;100926.88;5093985;28;20024;-90
2022/12/10 04:12:19;;;;;;;119.50;42.05;;;;;;;-3.00;100.00;100916.81;5094085;28;20016;-89
2022/12/10 04:17:33;;;;;;;122.53;42.63;;;;;;;-2.94;100.00;100929.44;5094176;28;20423;-90
2022/12/10 04:19:59;;;;;;;123.90;40.15;;;;;;;-3.00;100.00;100917.66;5093702;28;20020;-89
2022/12/10 04:27:55;;;;;;;119.43;41.15;;;;;;;-2.98;100.00;100915.13;5094334;28;20490;-90
2022/12/10 04:30:20;;;;;;;117.25;40.72;;;;;;;-2.92;100.00;100932.78;5075175;28;20044;-90
2022/12/10 04:32:46;;;;;;;121.93;41.67;;;;;;;-2.94;100.00;100927.75;5093416;28;20491;-90
2022/12/10 04:35:16;;;;;;;129.77;42.95;;;;;;;-3.18;100.00;100895.88;5093642;28;20032;-90
2022/12/10 04:37:44;;;;;;;125.70;43.20;;;;;;;-3.34;100.00;100870.69;5093147;28;20127;-89
2022/12/10 04:40:13;;;;;;;119.68;41.55;;;;;;;-2.91;100.00;100942.88;5075292;28;20298;-90
2022/12/10 04:42:38;;;;;;;133.07;43.53;;;;;;;-3.10;100.00;100908.47;5093492;28;20036;-88
2022/12/10 04:45:04;;;;;;;131.00;43.35;;;;;;;-2.84;100.00;100936.09;5093824;28;20426;-90
2022/12/10 04:47:30;;;;;;;122.85;41.75;;;;;;;-2.81;100.00;100933.53;5093335;28;20042;-91
2022/12/10 04:49:55;;;;;;;122.97;43.00;;;;;;;-3.00;100.00;100899.13;5093267;28;20085;-89
2022/12/10 04:52:20;;;;;;;121.43;43.00;;;;;;;-3.00;100.00;100891.56;5093290;28;20050;-90
2022/12/10 04:54:46;;;;;;;137.50;42.15;;;;;;;-2.78;100.00;100933.53;5093309;28;20027;-90
2022/12/10 04:57:11;;;;;;;147.35;44.67;;;;;;;-2.96;100.00;100911.72;5093394;28;20391;-91
2022/12/10 04:59:37;;;;;;;130.45;41.47;;;;;;;-3.01;100.00;100910.09;5092687;28;20032;-90
2022/12/10 05:02:03;;;;;;;133.05;39.83;;;;;;;-2.86;100.00;100947.88;5093047;28;20044;-90
2022/12/10 05:04:28;;;;;;;153.45;41.72;;;;;;;-2.93;100.00;100943.75;5093290;28;20031;-83
2022/12/10 05:06:54;;;;;;;124.88;40.55;;;;;;;-2.93;100.00;100944.56;5093139;28;20040;-88
2022/12/10 05:09:19;;;;;;;136.05;41.72;;;;;;;-2.96;100.00;100933.63;5093129;28;20024;-88
2022/12/10 05:11:45;;;;;;;128.15;40.95;;;;;;;-2.91;100.00;100944.56;5092936;28;20107;-88
2022/12/10 05:14:12;;;;;;;127.50;41.63;;;;;;;-3.24;100.00;100898.44;5076047;28;20048;-89
2022/12/10 05:16:37;;;;;;;132.13;43.70;;;;;;;-3.00;100.00;100930.28;5075021;28;20063;-87
2022/12/10 05:19:03;;;;;;;137.50;45.28;;;;;;;-2.94;100.00;100947.94;5092946;28;20095;-86
2022/12/10 05:24:16;;;;;;;126.38;41.78;;;;;;;-3.04;100.00;100921.06;5070812;28;20483;-89
2022/12/10 05:26:42;;;;;;;132.18;43.92;;;;;;;-3.05;100.00;100919.34;5070601;28;20070;-89
2022/12/10 05:29:08;;;;;;;131.93;42.83;;;;;;;-3.11;100.00;100895.84;5070730;28;20036;-88
2022/12/10 05:31:33;;;;;;;140.80;41.53;;;;;;;-3.02;100.00;100906.72;5070262;28;20040;-84
2022/12/10 05:33:59;;;;;;;132.95;42.63;;;;;;;-3.00;100.00;100910.09;5070648;28;20074;-91
2022/12/10 05:36:27;;;;;;;165.77;44.47;;;;;;;-2.79;100.00;100936.91;5070319;28;20143;-88
2022/12/10 05:38:54;;;;;;;146.98;42.15;;;;;;;-3.14;100.00;100891.66;5070526;28;20518;-86
2022/12/10 05:41:25;;;;;;;134.57;41.55;;;;;;;-2.86;100.00;100927.66;5070584;28;20075;-90
2022/12/10 05:43:52;;;;;;;139.48;43.80;;;;;;;-2.77;100.00;100942.78;5070483;28;20037;-90
2022/12/10 05:46:22;;;;;;;160.63;41.60;;;;;;;-2.81;100.00;100943.66;5070609;28;20060;-85
2022/12/10 05:48:48;;;;;;;141.13;42.17;;;;;;;-2.88;100.00;100925.16;5070503;28;20033;-90
2022/12/10 05:51:16;;;;;;;143.73;43.60;;;;;;;-2.85;100.00;100938.63;5070350;28;20039;-88
2022/12/10 05:53:42;;;;;;;146.48;45.22;;;;;;;-3.04;100.00;100917.69;5053765;28;20028;-90
2022/12/10 05:56:14;;;;;;;124.93;42.70;;;;;;;-2.96;100.00;100924.34;5070358;28;20024;-90
2022/12/10 05:58:41;;;;;;;143.50;43.58;;;;;;;-2.79;100.00;100954.59;5070385;28;20029;-90
2022/12/10 06:01:12;;;;;;;130.73;42.30;;;;;;;-2.75;100.00;100953.75;5079375;28;20036;-87
2022/12/10 06:03:38;;;;;;;142.93;43.92;;;;;;;-2.97;100.00;100904.16;5074645;28;20107;-90
2022/12/10 06:06:04;;;;;;;139.63;42.10;;;;;;;-2.82;100.00;100924.28;5092454;28;20115;-86
2022/12/10 06:08:29;;;;;;;135.82;42.38;;;;;;;-2.71;100.00;100945.28;5092445;28;20024;-90
2022/12/10 06:10:57;;;;;;;134.15;42.40;;;;;;;-2.80;100.00;100926.81;5094215;28;20476;-87
2022/12/10 06:13:31;;;;;;;130.00;42.40;;;;;;;-2.65;100.00;100947.78;5096260;28;20056;-88
2022/12/10 06:15:57;;;;;;;130.30;40.63;;;;;;;-3.32;100.00;100821.06;5096244;28;20024;-89
2022/12/10 06:18:22;;;;;;;128.55;40.97;;;;;;;-2.60;100.00;100943.50;5095999;28;20085;-87
2022/12/10 06:20:50;;;;;;;138.55;45.03;;;;;;;-2.82;100.00;100915.88;5096171;28;20416;-90
2022/12/10 06:23:33;;;;;;;144.73;43.55;;;;;;;-2.57;100.00;100946.84;5095655;28;20462;-90
2022/12/10 06:25:58;;;;;;;148.18;43.65;;;;;;;-2.58;100.00;100961.19;5096248;28;20379;-86
2022/12/10 06:28:35;;;;;;;152.10;42.88;;;;;;;-3.38;100.00;100832.00;5095900;28;20024;-87
2022/12/10 06:31:00;;;;;;;147.40;44.10;;;;;;;-2.93;100.00;100914.25;5095684;28;20048;-86
2022/12/10 06:33:27;;;;;;;167.45;44.58;;;;;;;-2.96;100.00;100910.88;5095928;28;20060;-86
2022/12/10 06:35:54;;;;;;;136.93;39.88;;;;;;;-2.64;100.00;100958.72;5095499;28;20111;-89
2022/12/10 06:38:20;;;;;;;126.55;41.35;;;;;;;-2.64;100.00;100963.78;5095647;28;20026;-87
2022/12/10 06:40:45;;;;;;;135.25;40.47;;;;;;;-2.66;100.00;100967.97;5096877;28;20467;-87
2022/12/10 06:43:10;;;;;;;149.93;42.25;;;;;;;-2.73;100.00;100959.63;5067342;22;20290;-90
2022/12/10 06:45:40;;;;;;;139.32;40.33;;;;;;;-2.96;100.00;100921.00;5055707;28;20036;-87
2022/12/10 06:48:06;;;;;;;138.63;41.90;;;;;;;-2.98;100.00;100922.69;5055494;28;20366;-88
2022/12/10 06:50:31;;;;;;;132.35;40.70;;;;;;;-3.06;100.00;100919.38;5055142;28;20083;-86
2022/12/10 06:52:59;;;;;;;124.65;40.33;;;;;;;-2.61;100.00;100986.50;5055198;28;20028;-92
2022/12/10 06:55:24;;;;;;;131.50;41.10;;;;;;;-3.09;100.00;100904.25;5055262;28;20021;-89
2022/12/10 06:57:53;;;;;;;136.48;43.97;;;;;;;-2.54;100.00;100982.25;5055145;28;20021;-84
2022/12/10 07:00:24;;;;;;;134.27;44.03;;;;;;;-3.41;100.00;100824.47;5055218;28;20035;-91
2022/12/10 07:02:50;;;;;;;135.95;43.63;;;;;;;-2.50;100.00;100968.72;5055328;28;20030;-87
2022/12/10 07:05:15;;;;;;;134.68;40.22;;;;;;;-2.66;100.00;100952.81;5055133;28;20035;-86
2022/12/10 07:07:42;;;;;;;119.43;40.28;;;;;;;-2.57;100.00;100965.38;5054943;28;20074;-88
2022/12/10 07:10:07;;;;;;;123.63;36.55;;;;;;;-2.50;100.00;100984.72;5054882;28;20028;-89
2022/12/10 07:12:33;;;;;;;117.97;39.53;;;;;;;-2.73;100.00;100956.25;5054857;28;20024;-89
2022/12/10 07:14:59;;;;;;;129.07;37.40;;;;;;;-2.51;100.00;100999.91;5054672;28;20512;-86
2022/12/10 07:17:27;;;;;;;119.80;36.95;;;;;;;-2.85;100.00;100943.66;5054951;28;20083;-88
2022/12/10 07:20:05;;;;;;;119.43;36.25;;;;;;;-2.53;100.00;100988.97;5054724;28;20429;-88
2022/12/10 07:22:33;;;;;;;122.50;37.20;;;;;;;-2.56;100.00;100987.28;5054232;28;20029;-89
2022/12/10 07:24:58;;;;;;;123.53;36.83;;;;;;;-2.69;100.00;100971.38;5054611;28;20021;-89
2022/12/10 07:27:33;;;;;;;104.05;34.92;;;;;;;-3.44;100.00;100854.78;5054743;28;20082;-89
2022/12/10 07:30:08;;;;;;;115.68;37.65;;;;;;;-3.44;100.00;100866.53;5054600;28;20031;-88
2022/12/10 07:32:36;;;;;;;114.95;35.97;;;;;;;-3.55;100.00;100849.75;5052509;28;20036;-89
2022/12/10 07:35:01;;;;;;;114.95;35.97;;;;;;;-2.63;100.00;101016.00;5054400;28;20067;-86
2022/12/10 07:37:27;;;;;;;114.50;35.33;;;;;;;-2.64;100.00;101007.59;5036722;28;20420;-89
2022/12/10 07:39:52;;;;;;;110.00;35.40;;;;;;;-2.61;100.00;101005.03;5053999;28;20056;-86
2022/12/10 07:42:18;;;;;;;110.45;36.38;;;;;;;-2.57;100.00;101005.00;5054219;28;20052;-89
2022/12/10 07:44:47;;;;;;;112.22;36.45;;;;;;;-2.55;100.00;101009.22;5054956;28;20025;-89
2022/12/10 07:47:12;;;;;;;108.97;37.65;;;;;;;-2.52;100.00;101013.41;5054206;28;20021;-88
2022/12/10 07:49:41;;;;;;;125.93;37.75;;;;;;;-2.62;100.00;101000.81;5054511;28;20090;-88
2022/12/10 07:52:07;;;;;;;117.63;35.63;;;;;;;-2.72;100.00;100985.72;5053904;28;20362;-88
2022/12/10 07:54:39;;;;;;;110.50;36.15;;;;;;;-2.52;100.00;101019.31;5055786;28;20158;-87
2022/12/10 07:57:05;;;;;;;119.63;37.80;;;;;;;-2.64;100.00;100989.88;5054092;28;20029;-88
2022/12/10 07:59:30;;;;;;;113.25;35.80;;;;;;;-2.48;100.00;101015.06;5054507;28;20033;-88
2022/12/10 08:01:57;;;;;;;121.22;37.90;;;;;;;-2.43;100.00;101026.00;5054728;28;20025;-90
2022/12/10 08:04:40;;;;;;;121.18;37.47;;;;;;;-2.41;100.00;101026.81;5054331;28;20032;-89
2022/12/10 08:07:08;;;;;;;105.97;36.08;;;;;;;-2.92;100.00;100943.72;5051982;28;20028;-80
2022/12/10 08:15:08;;;;;;;115.30;38.15;;;;;;;-2.76;100.00;100964.66;5071129;28;20055;-85
2022/12/10 08:17:50;;;;;;;111.93;36.60;;;;;;;-3.13;100.00;100905.13;5073506;28;20388;-86
2022/12/10 08:20:27;;;;;;;116.25;38.15;;;;;;;-2.73;100.00;100962.13;5073513;28;20460;-83
2022/12/10 08:22:55;;;;;;;122.35;36.63;;;;;;;-3.41;100.00;100853.94;5073851;28;20060;-94
2022/12/10 08:25:20;;;;;;;116.80;37.70;;;;;;;-2.21;100.00;101045.22;5074865;28;20031;-90
2022/12/10 08:27:45;;;;;;;106.07;36.15;;;;;;;-2.19;100.00;101058.69;5074025;28;20020;-93
2022/12/10 08:30:11;;;;;;;103.63;36.35;;;;;;;-2.21;100.00;101052.81;5073545;28;20365;-88
2022/12/10 08:32:36;;;;;;;122.15;37.90;;;;;;;-2.16;100.00;101055.31;5076100;28;20040;-94
2022/12/10 08:35:01;;;;;;;106.10;36.55;;;;;;;-2.14;100.00;101059.50;5075670;28;20036;-90
2022/12/10 08:37:27;;;;;;;105.38;37.10;;;;;;;-2.10;100.00;101063.69;5074141;28;20066;-94
2022/12/10 08:39:52;;;;;;;108.70;36.60;;;;;;;-2.08;100.00;101063.69;5076180;28;20036;-94
2022/12/10 08:42:17;;;;;;;113.93;35.63;;;;;;;-2.10;100.00;101068.75;5074873;28;20024;-87
2022/12/10 08:44:43;;;;;;;117.82;34.08;;;;;;;-2.09;100.00;101070.44;5073330;28;20024;-90
2022/12/10 08:47:08;;;;;;;109.05;35.35;;;;;;;-2.16;100.00;101060.38;5074130;28;20059;-85
2022/12/10 08:49:34;;;;;;;105.45;34.63;;;;;;;-2.08;100.00;101072.09;5075241;28;20400;-87
2022/12/10 08:51:59;;;;;;;102.25;33.67;;;;;;;-2.04;100.00;101061.13;5075438;28;20047;-92
2022/12/10 08:54:24;;;;;;;103.28;34.90;;;;;;;-1.99;100.00;101060.25;5075100;28;20384;-87
2022/12/10 08:56:50;;;;;;;120.35;35.17;;;;;;;-1.99;100.00;101060.25;5074718;28;20076;-92
2022/12/10 08:59:16;;;;;;;116.22;34.67;;;;;;;-2.02;100.00;101067.00;5075493;28;20036;-94
2022/12/10 09:01:41;;;;;;;104.22;32.15;;;;;;;-2.25;100.00;101035.16;5074722;28;20024;-94
2022/12/10 09:04:07;;;;;;;99.10;32.75;;;;;;;-2.10;100.00;101060.31;5076169;28;20396;-92
2022/12/10 09:06:33;;;;;;;113.55;33.78;;;;;;;-2.17;100.00;101054.47;5073159;28;20036;-92
2022/12/10 09:08:58;;;;;;;111.43;32.38;;;;;;;-2.14;100.00;101062.03;5073432;28;20472;-90
2022/12/10 09:11:31;;;;;;;90.15;30.90;;;;;;;-2.09;100.00;101064.53;5073930;28;20025;-78
2022/12/10 09:13:57;;;;;;;98.55;31.90;;;;;;;-2.03;100.00;101078.00;5073533;28;20055;-91
2022/12/10 09:16:32;;;;;;;97.55;32.08;;;;;;;-2.04;100.00;101066.19;5073440;28;20029;-93
2022/12/10 09:18:58;;;;;;;96.95;31.00;;;;;;;-2.02;100.00;101074.59;5073421;28;20464;-85
2022/12/10 09:21:27;;;;;;;103.20;31.02;;;;;;;-2.43;100.00;100999.03;5073079;28;20024;-91
2022/12/10 09:23:52;;;;;;;82.97;30.15;;;;;;;-1.95;100.00;101093.13;5073112;28;20029;-90
2022/12/10 09:26:19;;;;;;;91.97;29.65;;;;;;;-1.94;100.00;101091.44;5072684;28;20027;-90
2022/12/10 09:28:45;;;;;;;83.88;29.48;;;;;;;-1.89;100.00;101094.75;5073091;28;20353;-87
2022/12/10 09:31:12;;;;;;;88.65;29.30;;;;;;;-1.85;100.00;101093.88;5073030;28;20025;-89
2022/12/10 09:33:37;;;;;;;94.63;30.80;;;;;;;-2.13;100.00;101038.41;5072872;28;20027;-81
2022/12/10 09:36:06;;;;;;;92.60;29.27;;;;;;;-1.84;100.00;101091.34;5073046;28;20021;-81
2022/12/10 09:38:34;;;;;;;102.53;32.55;;;;;;;-1.96;100.00;101072.88;5072672;28;20443;-93
2022/12/10 09:41:02;;;;;;;82.15;29.80;;;;;;;-1.87;100.00;101090.50;5073038;28;20028;-87
2022/12/10 09:43:48;;;;;;;82.63;29.73;;;;;;;-1.73;100.00;101103.91;5073564;28;20100;-90
2022/12/10 09:46:25;;;;;;;86.03;29.48;;;;;;;-1.70;100.00;101106.41;5094872;28;20028;-80
2022/12/10 09:49:19;;;;;;;84.65;30.42;;;;;;;-1.64;100.00;101105.53;5077072;28;20463;-89
2022/12/10 09:51:45;;;;;;;83.72;29.02;;;;;;;-1.70;100.00;101097.97;5076643;28;20103;-87
2022/12/10 09:54:26;;;;;;;85.00;27.33;;;;;;;-1.72;100.00;101105.59;5076118;28;20540;-82
2022/12/10 09:56:54;;;;;;;72.60;27.58;;;;;;;-1.91;100.00;101069.47;5076219;28;20021;-83
2022/12/10 09:59:24;;;;;;;84.82;29.00;;;;;;;-1.68;100.00;101104.69;5076326;28;20024;-82
2022/12/10 10:02:02;;;;;;;76.78;27.13;;;;;;;-1.63;100.00;101110.56;5076170;28;20029;-85
2022/12/10 10:04:28;;;;;;;78.05;28.95;;;;;;;-1.73;100.00;101093.78;5074910;28;20039;-87
2022/12/10 10:06:54;;;;;;;81.45;29.90;;;;;;;-1.56;100.00;101116.44;5076101;28;20462;-85
2022/12/10 10:09:20;;;;;;;84.80;30.17;;;;;;;-1.53;100.00;101112.19;5076217;28;20024;-87
2022/12/10 10:11:46;;;;;;;84.72;30.02;;;;;;;-1.46;100.00;101116.34;5075753;28;20034;-88
2022/12/10 10:14:28;;;;;;;78.15;28.48;;;;;;;-1.54;100.00;101104.59;5075664;28;20124;-89
2022/12/10 10:16:54;;;;;;;81.18;28.92;;;;;;;-1.40;100.00;101122.19;5075952;28;20373;-85
2022/12/10 10:19:27;;;;;;;79.50;30.05;;;;;;;-1.76;100.00;101069.34;5075873;28;20039;-88
2022/12/10 10:22:12;;;;;;;71.88;27.17;;;;;;;-2.10;100.00;101002.97;5075756;28;20506;-86
2022/12/10 10:24:45;;;;;;;72.45;27.10;;;;;;;-1.40;100.00;101129.78;5075343;28;20041;-83
2022/12/10 10:27:19;;;;;;;82.25;27.67;;;;;;;-1.44;100.00;101123.91;5075448;28;20029;-84
2022/12/10 10:29:48;;;;;;;76.93;29.83;;;;;;;-1.43;100.00;101119.69;5076013;28;20033;-89
2022/12/10 10:32:19;;;;;;;70.68;26.65;;;;;;;-1.43;100.00;101120.53;5074806;28;20025;-83
2022/12/10 10:34:51;;;;;;;74.15;27.90;;;;;;;-1.38;100.00;101125.53;5075371;28;20063;-87
2022/12/10 10:37:21;;;;;;;74.47;26.17;;;;;;;-1.35;100.00;101123.00;5075893;28;20021;-78
2022/12/10 10:39:48;;;;;;;71.22;26.25;;;;;;;-1.40;100.00;101112.06;5090612;28;20044;-85
2022/12/10 10:42:38;;;;;;;61.92;24.92;;;;;;;-1.32;100.00;101128.03;5075380;28;20027;-77
2022/12/10 10:45:25;;;;;;;69.70;24.60;;;;;;;-1.31;100.00;101124.66;5074908;28;20041;-81
2022/12/10 10:48:04;;;;;;;66.60;26.00;;;;;;;-1.30;100.00;101114.50;5075280;28;20024;-87
2022/12/10 10:50:29;;;;;;;70.13;25.55;;;;;;;-1.27;100.00;101114.47;5090856;28;20472;-90
2022/12/10 10:52:54;;;;;;;68.05;27.15;;;;;;;-1.38;100.00;101088.38;5075356;28;20032;-78
2022/12/10 10:55:35;;;;;;;68.32;26.33;;;;;;;-1.24;100.00;101093.34;5074967;28;20039;-93
2022/12/10 10:58:00;;;;;;;66.13;26.88;;;;;;;-1.19;100.00;101102.56;5074981;28;20035;-85
2022/12/10 11:00:26;;;;;;;68.20;25.88;;;;;;;-1.19;100.00;101091.56;5075144;28;20029;-80
2022/12/10 11:02:52;;;;;;;68.25;27.08;;;;;;;-1.17;100.00;101082.28;5075084;28;20017;-87
2022/12/10 11:05:26;;;;;;;69.43;25.42;;;;;;;-1.08;100.00;101092.31;5075180;28;20025;-79
2022/12/10 11:08:04;;;;;;;75.80;27.40;;;;;;;-1.04;100.00;101099.03;5073648;28;20106;-74
2022/12/10 11:10:30;;;;;;;72.68;26.13;;;;;;;-1.06;100.00;101088.06;5075271;28;20031;-87
2022/12/10 11:13:05;;;;;;;62.88;26.30;;;;;;;-0.99;100.00;101102.34;5074762;28;20016;-88
2022/12/10 11:15:35;;;;;;;65.13;25.67;;;;;;;-1.22;100.00;101066.28;5073709;28;20458;-88
2022/12/10 11:18:02;;;;;;;70.45;27.67;;;;;;;-0.98;100.00;101095.59;5074733;28;20029;-88
2022/12/10 11:20:31;;;;;;;72.03;27.73;;;;;;;-0.94;100.00;101100.59;5074692;28;20495;-88
2022/12/10 11:22:59;;;;;;;71.60;26.77;;;;;;;-0.94;100.00;101104.84;5074824;28;20048;-89
2022/12/10 11:25:38;;;;;;;68.85;27.52;;;;;;;-1.06;100.00;101079.63;5075082;28;20059;-91